Time;durP1;ratioP1;P1;durP2;ratioP2;P2;SDS_P1;SDS_P2;PMS_P1;PMS_P2;Temp;Humidity;BMP_temperature;BMP_pressure;BME280_temperature;BME280_humidity;BME280_pressure;Samples;Min_cycle;Max_cycle;Signal;HPM_P1;HPM_P2
2022/04/04 00:01:06;;;;;;;16.63;10.55;;;;;;;5.88;70.87;97681.81;4937232;29;20126;-87
2022/04/04 00:03:31;;;;;;;16.05;10.38;;;;;;;5.58;71.55;97629.97;4922972;29;20110;-85
2022/04/04 00:05:57;;;;;;;15.90;10.50;;;;;;;5.94;72.74;97701.94;4937703;28;20035;-86
2022/04/04 00:08:23;;;;;;;17.33;10.40;;;;;;;6.04;71.90;97708.59;4937639;29;20495;-86
2022/04/04 00:10:48;;;;;;;17.77;9.63;;;;;;;5.81;72.06;97680.34;4922332;28;20035;-87
2022/04/04 00:13:14;;;;;;;16.90;10.32;;;;;;;5.89;72.47;97680.91;4937867;29;20031;-86
2022/04/04 00:15:41;;;;;;;16.45;10.50;;;;;;;5.70;72.31;97669.28;4954287;28;20027;-87
2022/04/04 00:18:11;;;;;;;17.05;9.93;;;;;;;5.82;72.65;97676.72;4923003;29;20039;-87
2022/04/04 00:24:11;;;;;;;15.48;9.15;;;;;;;5.85;71.97;97675.72;4929309;29;20621;-86
2022/04/04 00:26:36;;;;;;;17.55;9.68;;;;;;;5.94;71.53;97681.56;4920254;29;20140;-85
2022/04/04 00:29:02;;;;;;;14.05;9.88;;;;;;;5.87;71.45;97676.59;4920105;29;20423;-86
2022/04/04 00:31:28;;;;;;;18.00;9.75;;;;;;;6.05;70.51;97677.59;4904291;29;20058;-86
2022/04/04 00:33:53;;;;;;;17.25;9.60;;;;;;;6.04;70.56;97684.72;4903746;29;20126;-86
2022/04/04 00:36:19;;;;;;;13.98;9.73;;;;;;;5.94;70.27;97686.00;4918113;29;20613;-87
2022/04/04 00:38:45;;;;;;;14.10;9.57;;;;;;;5.97;70.20;97673.47;4935029;29;20419;-86
2022/04/04 00:41:12;;;;;;;15.75;9.77;;;;;;;5.90;70.95;97681.78;4918387;29;20028;-86
2022/04/04 00:43:38;;;;;;;18.13;9.27;;;;;;;5.92;71.02;97687.88;4918923;29;20472;-86
2022/04/04 00:46:04;;;;;;;14.68;9.52;;;;;;;6.00;71.30;97678.66;4902588;29;20044;-86
2022/04/04 00:48:30;;;;;;;15.48;9.10;;;;;;;6.00;72.27;97710.50;4903212;29;20087;-87
2022/04/04 00:50:56;;;;;;;15.32;9.65;;;;;;;5.97;71.57;97704.47;4918958;29;20484;-86
2022/04/04 00:53:22;;;;;;;13.35;9.13;;;;;;;5.77;70.47;97662.78;4918824;29;20463;-87
2022/04/04 00:55:48;;;;;;;16.35;9.45;;;;;;;5.82;71.68;97686.47;4902972;29;20035;-87
2022/04/04 00:58:17;;;;;;;15.55;9.52;;;;;;;5.93;73.78;97709.06;4918898;29;20540;-88
2022/04/04 01:00:45;;;;;;;18.33;10.80;;;;;;;5.63;74.56;97667.78;4903515;29;20036;-86
2022/04/04 01:03:11;;;;;;;21.38;11.02;;;;;;;5.58;74.76;97672.41;4919531;29;20519;-87
2022/04/04 01:05:36;;;;;;;16.52;10.75;;;;;;;5.76;73.97;97689.38;4903204;29;20059;-85
2022/04/04 01:08:02;;;;;;;20.95;10.50;;;;;;;5.65;74.55;97681.00;4918417;29;20094;-86
2022/04/04 01:10:29;;;;;;;22.73;12.52;;;;;;;5.63;74.09;97680.22;4902587;29;20036;-87
2022/04/04 01:12:56;;;;;;;19.83;11.75;;;;;;;5.67;74.09;97687.97;4905077;29;20045;-85
2022/04/04 01:15:23;;;;;;;24.60;13.90;;;;;;;5.59;75.18;97690.06;4906017;29;20412;-86
2022/04/04 01:17:50;;;;;;;28.00;14.63;;;;;;;5.60;75.85;97706.88;4906187;29;20042;-86
2022/04/04 01:20:16;;;;;;;26.40;15.43;;;;;;;5.56;76.72;97690.19;4922277;29;20091;-86
2022/04/04 01:22:46;;;;;;;28.67;14.13;;;;;;;5.29;77.24;97667.44;4933254;29;20061;-85
2022/04/04 01:25:12;;;;;;;23.75;13.48;;;;;;;5.23;78.29;97657.91;4940929;28;20464;-86
2022/04/04 01:27:39;;;;;;;24.27;12.60;;;;;;;5.46;78.60;97683.53;4924475;29;20034;-86
2022/04/04 01:30:07;;;;;;;19.65;11.48;;;;;;;5.33;79.50;97677.84;4940847;28;20639;-86
2022/04/04 01:32:34;;;;;;;23.83;12.02;;;;;;;5.25;80.86;97679.06;4940658;29;20525;-86
2022/04/04 01:35:00;;;;;;;17.33;10.98;;;;;;;5.31;81.89;97694.75;4925055;28;20114;-87
2022/04/04 01:37:26;;;;;;;20.00;11.13;;;;;;;5.25;81.64;97689.66;4925176;29;20031;-86
2022/04/04 01:39:52;;;;;;;16.10;10.13;;;;;;;5.08;80.98;97670.88;4928741;29;20046;-86
2022/04/04 01:42:18;;;;;;;22.30;12.75;;;;;;;5.02;82.06;97677.28;4940332;28;20499;-85
2022/04/04 01:44:43;;;;;;;22.92;12.85;;;;;;;5.02;81.83;97687.00;4940045;29;20035;-87
2022/04/04 01:47:10;;;;;;;22.95;13.23;;;;;;;4.99;83.19;97700.38;4924139;28;20042;-87
2022/04/04 01:49:35;;;;;;;23.00;12.63;;;;;;;4.95;81.47;97701.44;4940297;29;20472;-86
2022/04/04 01:52:01;;;;;;;17.23;10.73;;;;;;;4.85;81.64;97680.59;4924676;28;20035;-85
2022/04/04 01:54:27;;;;;;;17.85;11.32;;;;;;;4.85;81.65;97675.28;4924537;29;20056;-85
2022/04/04 01:56:52;;;;;;;20.08;10.45;;;;;;;5.01;81.85;97690.59;4928917;29;20023;-87
2022/04/04 01:59:18;;;;;;;19.42;10.13;;;;;;;4.99;79.17;97681.84;4924842;28;20035;-86
2022/04/04 02:01:44;;;;;;;16.77;9.45;;;;;;;4.99;78.99;97681.84;4940933;29;20064;-85
2022/04/04 02:04:13;;;;;;;22.58;9.82;;;;;;;5.08;78.82;97676.19;4924518;28;20186;-86
2022/04/04 02:06:39;;;;;;;17.70;9.80;;;;;;;5.24;77.27;97679.97;4924611;29;20027;-86
2022/04/04 02:09:06;;;;;;;20.48;10.15;;;;;;;5.25;77.43;97679.06;4923809;28;20486;-89
2022/04/04 02:11:31;;;;;;;15.23;9.30;;;;;;;5.36;76.45;97687.47;4924271;29;20027;-86
2022/04/04 02:13:59;;;;;;;15.35;9.38;;;;;;;5.16;76.96;97652.91;4940191;29;20169;-86
2022/04/04 02:16:25;;;;;;;15.70;9.45;;;;;;;5.24;76.33;97666.72;4939743;28;20031;-86
2022/04/04 02:18:51;;;;;;;17.27;9.82;;;;;;;5.06;77.64;97649.75;4924383;29;20035;-86
2022/04/04 02:21:16;;;;;;;15.50;9.52;;;;;;;5.05;78.11;97660.38;4923607;28;20027;-85
2022/04/04 02:23:42;;;;;;;14.75;9.85;;;;;;;4.93;78.21;97659.94;4938602;29;20043;-86
2022/04/04 02:26:08;;;;;;;16.45;9.52;;;;;;;4.69;79.76;97658.22;4924222;28;20483;-87
2022/04/04 02:28:34;;;;;;;20.73;10.82;;;;;;;4.55;81.21;97652.56;4924024;29;20038;-86
2022/04/04 02:31:00;;;;;;;17.58;10.55;;;;;;;4.78;80.11;97696.75;4939530;29;20024;-87
2022/04/04 02:33:26;;;;;;;19.77;10.90;;;;;;;4.65;80.50;97688.38;4955153;28;20388;-78
2022/04/04 02:35:52;;;;;;;24.48;10.48;;;;;;;4.83;80.83;97703.59;4939474;29;20089;-87
2022/04/04 02:38:19;;;;;;;19.10;10.57;;;;;;;4.72;80.96;97683.72;4939489;29;20519;-87
2022/04/04 02:40:45;;;;;;;21.70;9.80;;;;;;;4.68;80.97;97676.81;4924123;29;20027;-87
2022/04/04 02:43:11;;;;;;;16.63;10.13;;;;;;;4.59;80.77;97662.13;4923931;29;20038;-86
2022/04/04 02:45:37;;;;;;;15.45;9.20;;;;;;;4.63;80.90;97671.69;4939261;29;20110;-87
2022/04/04 02:48:03;;;;;;;19.70;10.35;;;;;;;4.65;81.49;97672.47;4939506;29;20031;-87
2022/04/04 02:50:29;;;;;;;19.73;11.18;;;;;;;4.51;81.78;97663.31;4939580;28;20027;-87
2022/04/04 02:52:55;;;;;;;20.45;11.32;;;;;;;4.55;83.64;97670.25;4939760;29;20388;-87
2022/04/04 02:58:05;;;;;;;15.75;10.20;;;;;;;4.47;84.17;97677.59;4941803;29;20038;-86
2022/04/04 03:00:31;;;;;;;16.50;9.55;;;;;;;4.47;83.56;97678.44;4939185;28;20035;-87
2022/04/04 03:02:57;;;;;;;18.80;10.25;;;;;;;4.41;84.06;97683.09;4923248;29;20056;-88
2022/04/04 03:05:23;;;;;;;20.83;10.23;;;;;;;4.16;85.40;97651.31;4923617;28;20141;-87
2022/04/04 03:07:50;;;;;;;17.10;10.20;;;;;;;3.98;86.99;97638.72;4923221;29;20035;-86
2022/04/04 03:10:17;;;;;;;16.55;10.25;;;;;;;3.85;88.18;97635.63;4938846;29;20395;-86
2022/04/04 03:12:44;;;;;;;15.43;10.02;;;;;;;3.81;89.75;97652.56;4938666;29;20027;-86
2022/04/04 03:15:12;;;;;;;22.65;10.30;;;;;;;3.75;91.38;97661.53;4939083;29;20093;-85
2022/04/04 03:17:39;;;;;;;29.67;11.70;;;;;;;3.76;92.63;97679.16;4923053;28;20098;-85
2022/04/04 03:20:09;;;;;;;24.77;11.63;;;;;;;3.75;92.72;97677.41;4939267;29;20187;-87
2022/04/04 03:22:39;;;;;;;24.65;11.88;;;;;;;3.67;91.50;97679.44;4938144;28;20055;-86
2022/04/04 03:25:06;;;;;;;22.98;10.82;;;;;;;3.56;92.85;97670.13;4938436;29;20491;-86
2022/04/04 03:27:31;;;;;;;17.77;10.73;;;;;;;3.37;95.45;97664.56;4938527;28;20035;-86
2022/04/04 03:29:58;;;;;;;20.10;10.90;;;;;;;3.16;96.32;97646.75;4923350;29;20518;-86
2022/04/04 03:32:23;;;;;;;23.88;11.48;;;;;;;3.30;97.02;97673.59;4951364;28;20053;-85
2022/04/04 03:34:49;;;;;;;19.40;10.25;;;;;;;3.07;96.57;97647.91;4938336;29;20090;-87
2022/04/04 03:37:16;;;;;;;15.07;8.95;;;;;;;3.29;95.08;97687.75;4923265;29;20039;-87
2022/04/04 03:39:42;;;;;;;13.98;7.90;;;;;;;3.22;95.29;97696.78;4922426;28;20031;-85
2022/04/04 03:42:07;;;;;;;12.48;7.95;;;;;;;2.96;94.46;97650.00;4938639;29;20062;-85
2022/04/04 03:44:33;;;;;;;14.10;8.57;;;;;;;3.07;94.25;97670.81;4922767;28;20027;-86
2022/04/04 03:46:59;;;;;;;16.48;9.52;;;;;;;3.00;95.59;97679.81;4923318;29;20054;-86
2022/04/04 03:49:24;;;;;;;22.88;10.45;;;;;;;3.02;95.64;97689.44;4923137;29;20035;-86
2022/04/04 03:51:50;;;;;;;15.23;9.55;;;;;;;3.17;95.71;97722.44;4941272;29;20871;-88
2022/04/04 03:54:16;;;;;;;43.70;15.95;;;;;;;2.82;96.10;97685.66;4927309;29;20097;-86
2022/04/04 03:56:44;;;;;;;29.73;13.65;;;;;;;2.53;94.89;97653.03;4941088;28;20129;-87
2022/04/04 03:59:10;;;;;;;26.15;13.07;;;;;;;2.64;95.95;97697.63;4940853;29;20031;-86
2022/04/04 04:01:35;;;;;;;21.83;10.77;;;;;;;2.70;95.43;97703.59;4924657;29;20514;-86
2022/04/04 04:04:01;;;;;;;23.38;10.98;;;;;;;2.57;95.69;97701.34;4926008;29;20047;-85
2022/04/04 04:06:28;;;;;;;19.35;9.70;;;;;;;2.70;95.67;97724.72;4940625;29;20106;-86
2022/04/04 04:08:54;;;;;;;26.80;12.43;;;;;;;2.35;96.15;97674.66;4925495;29;20087;-85
2022/04/04 04:11:21;;;;;;;21.10;11.52;;;;;;;2.58;96.91;97733.00;4941480;29;20031;-87
2022/04/04 04:13:49;;;;;;;22.20;11.18;;;;;;;2.31;96.54;97685.38;4925333;28;20028;-85
2022/04/04 04:16:15;;;;;;;24.08;12.35;;;;;;;2.27;96.62;97700.41;4925245;29;20491;-84
2022/04/04 04:18:41;;;;;;;19.65;11.93;;;;;;;2.21;96.93;97684.75;4941297;28;20100;-76
2022/04/04 04:21:10;;;;;;;25.98;12.82;;;;;;;2.52;96.92;97751.59;4923589;29;20046;-86
2022/04/04 04:23:37;;;;;;;34.58;15.00;;;;;;;2.56;97.31;97747.97;4940079;28;20051;-86
2022/04/04 04:26:05;;;;;;;29.48;14.15;;;;;;;2.80;97.24;97779.91;4923440;29;20066;-88
2022/04/04 04:28:32;;;;;;;21.50;12.70;;;;;;;2.55;96.59;97734.84;4938257;29;20035;-86
2022/04/04 04:30:59;;;;;;;35.03;14.40;;;;;;;2.74;96.63;97757.16;4923415;28;20035;-88
2022/04/04 04:33:24;;;;;;;32.42;14.68;;;;;;;2.82;96.07;97767.53;4940593;29;20035;-87
2022/04/04 04:35:51;;;;;;;29.05;14.80;;;;;;;2.94;95.86;97767.19;4938435;28;20110;-86
2022/04/04 04:38:17;;;;;;;30.17;14.35;;;;;;;2.92;95.48;97745.25;4939121;29;20408;-85
2022/04/04 04:40:43;;;;;;;31.05;14.20;;;;;;;3.05;94.13;97763.31;4923048;28;20458;-86
2022/04/04 04:43:10;;;;;;;22.77;13.15;;;;;;;3.01;92.56;97740.56;4938385;29;20035;-85
2022/04/04 04:45:36;;;;;;;27.05;13.23;;;;;;;3.39;91.13;97799.31;4939021;28;20130;-86
2022/04/04 04:48:02;;;;;;;25.73;13.68;;;;;;;3.39;90.65;97779.06;4941643;28;20031;-86
2022/04/04 04:50:28;;;;;;;15.38;10.05;;;;;;;4.10;87.81;97820.91;4925228;29;20032;-86
2022/04/04 04:52:54;;;;;;;21.27;10.40;;;;;;;4.01;85.51;97792.09;4940686;28;20057;-86
2022/04/04 04:55:21;;;;;;;23.15;10.93;;;;;;;4.35;83.63;97798.03;4925639;29;20027;-86
2022/04/04 04:57:48;;;;;;;19.45;10.55;;;;;;;4.35;82.34;97787.44;4940732;28;20042;-86
2022/04/04 05:00:16;;;;;;;17.10;9.93;;;;;;;4.44;80.59;97781.84;4925047;29;20113;-86
2022/04/04 05:02:42;;;;;;;19.95;9.80;;;;;;;4.74;80.06;97820.50;4925043;29;20031;-86
2022/04/04 05:05:08;;;;;;;17.67;9.77;;;;;;;4.87;78.02;97800.63;4925586;28;20038;-87
2022/04/04 05:07:34;;;;;;;30.38;15.98;;;;;;;5.26;76.54;97834.59;4925226;29;20507;-86
2022/04/04 05:10:05;;;;;;;38.22;11.98;;;;;;;5.28;75.35;97800.94;4940830;28;20046;-86
2022/04/04 05:12:37;;;;;;;17.45;10.30;;;;;;;5.67;73.04;97796.75;4925395;29;20106;-85
2022/04/04 05:15:02;;;;;;;21.45;10.55;;;;;;;6.15;71.04;97795.81;4918268;29;20485;-87
2022/04/04 05:17:28;;;;;;;25.98;11.00;;;;;;;6.66;69.01;97820.22;4886596;29;20052;-86
2022/04/04 05:19:54;;;;;;;28.85;10.85;;;;;;;7.12;67.64;97818.22;4887205;29;20048;-86
2022/04/04 05:22:19;;;;;;;24.02;12.63;;;;;;;7.46;65.48;97787.41;4887184;29;20052;-85
2022/04/04 05:24:45;;;;;;;23.38;11.93;;;;;;;8.01;62.49;97796.31;4887041;29;20036;-86
2022/04/04 05:27:11;;;;;;;24.35;11.60;;;;;;;8.14;61.55;97796.59;4885905;29;20035;-86
2022/04/04 05:29:36;;;;;;;25.77;11.90;;;;;;;8.11;61.17;97780.75;4886438;29;20071;-86
2022/04/04 05:32:02;;;;;;;20.70;12.05;;;;;;;8.67;59.84;97818.00;4885544;29;20130;-85
2022/04/04 05:34:31;;;;;;;19.77;11.35;;;;;;;9.65;56.43;97823.50;4886728;29;20130;-86
2022/04/04 05:36:56;;;;;;;19.40;10.88;;;;;;;10.09;53.79;97766.75;4888057;29;20028;-85
2022/04/04 05:39:22;;;;;;;20.08;10.68;;;;;;;11.00;51.67;97764.94;4902105;29;20575;-88
2022/04/04 05:41:48;;;;;;;26.23;11.02;;;;;;;10.79;51.10;97734.13;4887559;29;20132;-87
2022/04/04 05:44:14;;;;;;;37.25;12.55;;;;;;;9.87;54.55;97822.31;4902704;29;20036;-85
2022/04/04 05:46:40;;;;;;;24.98;12.50;;;;;;;8.70;56.89;97762.69;4902639;29;20031;-87
2022/04/04 05:49:05;;;;;;;27.85;11.45;;;;;;;8.52;59.00;97824.94;4907140;29;20032;-86
2022/04/04 05:51:33;;;;;;;43.10;22.70;;;;;;;8.30;59.59;97844.72;4910703;29;20236;-87
2022/04/04 05:53:59;;;;;;;16.48;10.50;;;;;;;8.32;60.44;97835.72;4925372;28;20038;-86
2022/04/04 05:56:25;;;;;;;22.00;11.30;;;;;;;8.59;59.56;97830.81;4940524;29;20063;-87
2022/04/04 05:58:54;;;;;;;17.35;10.60;;;;;;;9.14;56.83;97816.41;4923879;29;20038;-86
2022/04/04 06:01:19;;;;;;;14.15;8.75;;;;;;;8.86;56.83;97808.09;4925802;28;20094;-86
2022/04/04 06:03:45;;;;;;;16.00;10.32;;;;;;;9.55;55.64;97835.59;4940014;29;20085;-87
2022/04/04 06:06:11;;;;;;;21.10;11.18;;;;;;;9.95;54.23;97828.97;4923749;28;20023;-87
2022/04/04 06:08:37;;;;;;;16.65;10.98;;;;;;;10.48;51.86;97817.13;4943543;29;20031;-88
2022/04/04 06:11:02;;;;;;;16.88;9.77;;;;;;;11.35;49.53;97797.63;4940930;28;20488;-86
2022/04/04 06:13:28;;;;;;;18.08;9.93;;;;;;;11.61;48.64;97791.50;4945648;29;20078;-88
2022/04/04 06:15:54;;;;;;;23.38;12.05;;;;;;;12.20;47.10;97778.84;4924558;29;20031;-89
2022/04/04 06:18:20;;;;;;;22.77;11.55;;;;;;;11.83;46.82;97773.16;4925944;28;20054;-88
2022/04/04 06:20:45;;;;;;;22.83;11.75;;;;;;;10.88;48.39;97785.28;4927430;29;20031;-86
2022/04/04 06:23:11;;;;;;;35.70;18.35;;;;;;;10.14;50.20;97767.38;4941786;28;20062;-87
2022/04/04 06:25:38;;;;;;;20.50;11.88;;;;;;;11.25;48.76;97837.50;4927657;29;20042;-88
2022/04/04 06:28:05;;;;;;;18.83;12.15;;;;;;;12.17;47.11;97779.91;4928075;28;20019;-87
2022/04/04 06:30:31;;;;;;;19.17;10.48;;;;;;;12.64;45.11;97808.16;4960166;28;20035;-87
2022/04/04 06:32:56;;;;;;;21.20;12.10;;;;;;;12.63;45.18;97776.91;4924891;29;20509;-88
2022/04/04 06:35:24;;;;;;;15.13;10.00;;;;;;;12.64;43.60;97758.03;4926699;28;20056;-89
2022/04/04 06:37:51;;;;;;;14.50;8.60;;;;;;;13.36;42.25;97773.66;4940772;29;20053;-89
2022/04/04 06:40:21;;;;;;;13.23;8.90;;;;;;;12.92;42.14;97770.44;4940558;29;20435;-87
2022/04/04 06:42:48;;;;;;;13.98;9.35;;;;;;;12.57;42.41;97769.25;4924840;29;20042;-88
2022/04/04 06:45:15;;;;;;;18.00;8.50;;;;;;;12.01;43.64;97795.25;4941196;28;20031;-88
2022/04/04 06:47:41;;;;;;;13.55;8.05;;;;;;;12.47;42.71;97794.00;4926146;29;20086;-87
2022/04/04 06:50:07;;;;;;;28.17;9.43;;;;;;;12.59;41.42;97744.03;4924721;29;20129;-87
2022/04/04 06:52:33;;;;;;;11.15;7.72;;;;;;;12.60;42.00;97777.09;4956150;28;20030;-88
2022/04/04 06:54:59;;;;;;;13.60;7.55;;;;;;;12.16;42.39;97764.78;4923733;29;20031;-88
2022/04/04 06:57:25;;;;;;;10.10;7.43;;;;;;;12.02;43.40;97794.31;4924352;28;20114;-88
2022/04/04 06:59:51;;;;;;;11.45;7.68;;;;;;;11.81;43.26;97777.75;4924401;29;20047;-86
2022/04/04 07:02:17;;;;;;;10.70;6.97;;;;;;;12.48;41.88;97779.66;4924177;28;20034;-87
2022/04/04 07:04:43;;;;;;;43.08;8.82;;;;;;;12.82;41.46;97778.25;4924074;29;20027;-88
2022/04/04 07:07:08;;;;;;;11.63;7.55;;;;;;;12.78;40.77;97787.47;4926598;29;20046;-87
2022/04/04 07:09:35;;;;;;;17.58;8.15;;;;;;;13.17;40.58;97757.06;4924302;28;20027;-87
2022/04/04 07:12:01;;;;;;;12.95;7.95;;;;;;;12.77;41.18;97772.31;4941552;28;20035;-88
2022/04/04 07:14:38;;;;;;;11.20;7.47;;;;;;;12.22;42.10;97783.16;4940807;28;20450;-88
2022/04/04 07:17:04;;;;;;;14.10;7.43;;;;;;;12.43;42.00;97772.84;4925753;29;20419;-89
2022/04/04 07:19:35;;;;;;;10.95;7.40;;;;;;;12.83;41.14;97784.47;4925188;28;20046;-88
2022/04/04 07:22:01;;;;;;;10.55;7.45;;;;;;;12.23;41.93;97746.47;4925795;29;20146;-88
2022/04/04 07:24:29;;;;;;;12.18;8.07;;;;;;;12.70;41.76;97762.97;4927676;28;20487;-88
2022/04/04 07:26:56;;;;;;;9.93;6.88;;;;;;;12.24;41.64;97749.03;4941840;29;20525;-87
2022/04/04 07:30:23;;;;;;;10.85;6.95;;;;;;;12.47;41.69;97799.38;4948598;28;20086;-88
2022/04/04 07:36:11;;;;;;;11.38;7.10;;;;;;;13.14;39.61;97773.41;4929110;29;20051;-93
2022/04/04 07:38:37;;;;;;;42.05;18.10;;;;;;;12.69;42.49;97787.22;4905905;29;20032;-88
2022/04/04 07:41:05;;;;;;;14.88;7.60;;;;;;;13.82;40.04;97786.53;4903096;29;20040;-91
2022/04/04 07:43:31;;;;;;;12.23;7.20;;;;;;;14.86;38.12;97791.44;4904397;29;20055;-88
2022/04/04 07:45:57;;;;;;;17.50;7.28;;;;;;;15.31;36.41;97754.72;4902244;29;20096;-87
2022/04/04 07:48:23;;;;;;;11.73;7.53;;;;;;;14.55;37.80;97774.88;4902469;29;20050;-87
2022/04/04 07:50:48;;;;;;;22.08;7.72;;;;;;;14.57;38.52;97766.69;4902706;29;20040;-86
2022/04/04 07:53:17;;;;;;;9.93;7.32;;;;;;;14.74;37.34;97746.56;4888650;29;20503;-90
2022/04/04 07:55:43;;;;;;;11.13;7.55;;;;;;;14.86;37.15;97759.13;4892509;29;20032;-88
2022/04/04 07:58:43;;;;;;;10.38;6.88;;;;;;;14.34;37.64;97741.47;4924810;29;20042;-87
2022/04/04 08:01:35;;;;;;;13.68;6.68;;;;;;;14.89;37.05;97748.97;4929780;29;20038;-90
2022/04/04 08:04:10;;;;;;;9.63;7.28;;;;;;;15.07;36.21;97717.91;4929224;29;20047;-88
2022/04/04 08:06:42;;;;;;;9.38;6.60;;;;;;;15.86;35.16;97778.25;4959666;28;20027;-87
2022/04/04 08:09:26;;;;;;;9.55;6.55;;;;;;;16.77;33.15;97745.50;4927073;29;20510;-87
2022/04/04 08:12:05;;;;;;;10.50;7.50;;;;;;;16.44;33.03;97685.28;4944239;28;20050;-88
2022/04/04 08:18:06;;;;;;;12.55;7.47;;;;;;;15.19;35.37;97746.63;4949797;28;20031;-88
2022/04/04 08:20:32;;;;;;;11.73;7.63;;;;;;;15.08;34.81;97689.13;4940201;28;20472;-88
2022/04/04 08:22:58;;;;;;;10.70;7.07;;;;;;;15.76;35.23;97755.69;4936856;29;20075;-88
2022/04/04 08:25:24;;;;;;;16.77;7.85;;;;;;;16.42;33.92;97734.03;4904572;29;20051;-87
2022/04/04 08:27:49;;;;;;;16.50;9.50;;;;;;;13.95;37.38;97738.97;4919898;29;20051;-89
2022/04/04 08:30:17;;;;;;;17.10;10.82;;;;;;;13.15;40.36;97769.75;4919922;29;20043;-88
2022/04/04 08:32:44;;;;;;;12.65;8.05;;;;;;;14.57;37.70;97742.47;4904038;29;20034;-86
2022/04/04 08:35:12;;;;;;;17.48;8.52;;;;;;;15.58;36.37;97752.59;4919876;29;20028;-88
2022/04/04 08:37:38;;;;;;;11.85;7.78;;;;;;;16.08;34.70;97708.97;4920724;29;20024;-88
2022/04/04 08:40:06;;;;;;;16.88;8.50;;;;;;;16.80;33.50;97720.91;4921097;29;20027;-90
2022/04/04 08:42:32;;;;;;;12.23;7.78;;;;;;;16.84;33.40;97701.75;4920994;29;20511;-89
2022/04/04 08:44:59;;;;;;;13.40;7.57;;;;;;;16.62;33.96;97698.16;4908096;29;20091;-89
2022/04/04 08:47:26;;;;;;;9.57;7.03;;;;;;;15.18;35.28;97727.88;4938940;29;20033;-89
2022/04/04 08:49:52;;;;;;;11.32;7.75;;;;;;;14.23;37.32;97736.00;4921769;29;20031;-89
2022/04/04 08:52:19;;;;;;;12.70;7.45;;;;;;;14.58;36.49;97690.34;4922327;29;20058;-88
2022/04/04 08:54:45;;;;;;;14.85;7.78;;;;;;;15.19;35.47;97687.34;4918471;29;20048;-89
2022/04/04 08:57:13;;;;;;;15.30;8.60;;;;;;;15.96;35.11;97709.97;4919267;29;20032;-88
2022/04/04 08:59:39;;;;;;;9.98;6.70;;;;;;;16.39;33.63;97691.09;4905631;29;20030;-89
2022/04/04 09:02:08;;;;;;;10.73;6.75;;;;;;;16.45;33.39;97669.00;4905333;29;20036;-87
2022/04/04 09:04:34;;;;;;;9.85;6.55;;;;;;;16.90;32.88;97633.66;4922036;29;20039;-89
2022/04/04 09:07:07;;;;;;;12.35;7.10;;;;;;;17.73;32.43;97700.22;4921655;29;20212;-88
2022/04/04 09:09:45;;;;;;;17.45;8.05;;;;;;;18.27;31.38;97658.38;4907243;29;20460;-89
2022/04/04 09:13:01;;;;;;;11.70;7.35;;;;;;;18.37;31.75;97686.31;4906012;29;20135;-89
2022/04/04 09:16:04;;;;;;;10.15;6.93;;;;;;;17.61;32.51;97682.38;4921652;29;20028;-87
2022/04/04 09:18:36;;;;;;;13.43;8.75;;;;;;;17.95;31.58;97644.19;4920193;29;20499;-87
2022/04/04 09:21:19;;;;;;;13.90;7.50;;;;;;;18.37;31.06;97629.44;4919607;29;20111;-87
2022/04/04 09:23:52;;;;;;;15.73;6.75;;;;;;;18.09;30.91;97622.16;4935289;29;20317;-88
2022/04/04 09:26:41;;;;;;;10.55;6.90;;;;;;;16.92;32.51;97661.44;4955501;28;20078;-88
2022/04/04 09:29:20;;;;;;;8.88;6.38;;;;;;;17.77;31.37;97625.91;4923070;29;20118;-88
2022/04/04 09:32:05;;;;;;;13.82;7.03;;;;;;;18.95;30.14;97639.28;4938220;28;20458;-88
2022/04/04 09:34:56;;;;;;;8.50;6.32;;;;;;;18.07;30.84;97635.81;4942544;28;20173;-88
2022/04/04 09:37:24;;;;;;;12.80;6.65;;;;;;;17.79;30.65;97615.78;4926697;28;20460;-88
2022/04/04 09:40:08;;;;;;;12.20;6.90;;;;;;;16.10;32.87;97606.25;4926089;29;20054;-89
2022/04/04 09:42:34;;;;;;;9.23;5.53;;;;;;;18.45;29.63;97605.22;4926012;28;20110;-88
2022/04/04 09:45:05;;;;;;;9.10;5.88;;;;;;;19.81;28.48;97604.81;4926922;29;20050;-87
2022/04/04 09:47:55;;;;;;;12.98;6.82;;;;;;;20.52;27.90;97608.50;4941873;28;20027;-89
2022/04/04 09:50:41;;;;;;;11.43;7.55;;;;;;;20.86;27.56;97606.78;4943258;28;20027;-89
2022/04/04 09:53:25;;;;;;;13.27;7.90;;;;;;;20.72;28.29;97596.47;4943204;28;20031;-89
2022/04/04 09:55:56;;;;;;;13.13;7.15;;;;;;;20.82;27.58;97585.50;4928352;29;20447;-89
2022/04/04 09:58:25;;;;;;;8.40;6.50;;;;;;;20.02;27.71;97587.25;4927181;28;20047;-89
2022/04/04 10:00:51;;;;;;;7.85;6.40;;;;;;;19.42;28.63;97585.13;4926876;29;20131;-88
2022/04/04 10:03:18;;;;;;;7.93;5.90;;;;;;;19.41;28.55;97578.00;4926795;29;20070;-89
2022/04/04 10:05:49;;;;;;;11.32;5.63;;;;;;;20.23;27.80;97584.25;4926755;28;20035;-89
2022/04/04 10:08:15;;;;;;;7.03;5.63;;;;;;;20.24;26.86;97537.03;4927402;29;20067;-90
2022/04/04 10:10:42;;;;;;;10.48;5.60;;;;;;;20.80;26.47;97554.88;4926873;28;20142;-91
2022/04/04 10:13:09;;;;;;;11.10;5.78;;;;;;;19.74;27.46;97558.41;4927343;29;20015;-89
2022/04/04 10:15:39;;;;;;;12.70;5.60;;;;;;;19.45;28.50;97553.13;4927249;28;20085;-89
2022/04/04 10:18:06;;;;;;;8.13;5.78;;;;;;;19.92;27.54;97555.72;4926329;29;20045;-89
2022/04/04 10:20:32;;;;;;;9.10;6.50;;;;;;;17.94;29.81;97526.94;4926002;28;20093;-89
2022/04/04 10:22:59;;;;;;;8.27;6.07;;;;;;;18.96;28.68;97526.28;4925698;29;20062;-89
2022/04/04 10:25:29;;;;;;;18.38;6.43;;;;;;;18.93;28.67;97551.84;4927116;28;20067;-88
2022/04/04 10:27:56;;;;;;;8.23;5.90;;;;;;;18.31;28.86;97516.25;4929252;29;20499;-90
2022/04/04 10:30:34;;;;;;;9.65;6.03;;;;;;;18.24;29.94;97550.34;4926416;29;20106;-89
2022/04/04 10:32:59;;;;;;;15.27;7.10;;;;;;;18.06;29.71;97523.09;4926630;29;20071;-89
2022/04/04 10:35:27;;;;;;;12.98;6.18;;;;;;;17.88;30.12;97509.41;4927396;29;20035;-88
2022/04/04 10:38:22;;;;;;;6.90;4.95;;;;;;;18.60;28.64;97508.13;4928172;29;20071;-89
2022/04/04 10:40:47;;;;;;;11.48;5.85;;;;;;;19.29;28.39;97478.75;4942544;28;20038;-90
2022/04/04 10:43:14;;;;;;;10.55;5.80;;;;;;;19.66;28.77;97517.56;4927468;29;20090;-90
2022/04/04 10:45:50;;;;;;;14.65;6.43;;;;;;;19.83;28.16;97500.47;4925619;28;20034;-90
2022/04/04 10:48:18;;;;;;;8.55;5.05;;;;;;;19.66;27.70;97505.84;4925955;29;20027;-90
2022/04/04 10:50:45;;;;;;;5.30;4.20;;;;;;;18.92;27.39;97504.03;4925214;28;20081;-90
2022/04/04 10:53:11;;;;;;;7.65;5.47;;;;;;;18.66;27.35;97475.88;4925776;29;20030;-90
2022/04/04 10:55:36;;;;;;;10.25;5.10;;;;;;;20.23;26.32;97507.31;4925015;28;20027;-89
2022/04/04 10:58:14;;;;;;;9.82;5.35;;;;;;;21.05;25.95;97500.50;4942303;28;20037;-91
2022/04/04 11:01:09;;;;;;;7.65;4.97;;;;;;;20.20;26.67;97494.03;4942384;28;20050;-89
2022/04/04 11:03:39;;;;;;;11.23;5.60;;;;;;;20.49;26.34;97484.63;4942851;28;20038;-91
2022/04/04 11:09:04;;;;;;;6.18;4.30;;;;;;;19.85;26.44;97475.88;4944099;28;20093;-90
2022/04/04 11:12:00;;;;;;;6.45;4.32;;;;;;;20.10;26.28;97464.25;4942581;28;20079;-90
2022/04/04 11:14:27;;;;;;;17.38;5.13;;;;;;;18.69;28.43;97489.16;4929713;29;20067;-90
2022/04/04 11:20:14;;;;;;;6.07;4.00;;;;;;;19.40;27.14;97487.63;4959821;28;20101;-90
2022/04/04 11:22:44;;;;;;;4.80;3.88;;;;;;;19.06;27.50;97453.91;4941876;28;20066;-91
2022/04/04 11:25:16;;;;;;;5.80;3.67;;;;;;;18.89;27.80;97460.09;4927830;29;20042;-89
2022/04/04 11:27:47;;;;;;;7.37;3.63;;;;;;;18.81;27.49;97449.16;4926529;28;20023;-88
2022/04/04 11:30:56;;;;;;;9.80;3.42;;;;;;;19.96;26.63;97468.34;4940803;29;20027;-90
2022/04/04 11:33:25;;;;;;;4.88;3.80;;;;;;;20.11;26.56;97443.38;4940665;28;20023;-89
2022/04/04 11:35:54;;;;;;;5.43;3.45;;;;;;;20.80;25.54;97430.66;4924938;29;20023;-89
2022/04/04 11:38:20;;;;;;;7.70;3.70;;;;;;;20.17;26.16;97461.75;4925622;28;20031;-88
2022/04/04 11:40:54;;;;;;;4.75;3.47;;;;;;;19.85;25.87;97427.88;4925547;29;20042;-89
2022/04/04 11:43:24;;;;;;;4.10;3.53;;;;;;;20.50;25.89;97415.69;4923948;28;20031;-89
2022/04/04 11:45:52;;;;;;;6.32;4.13;;;;;;;20.66;25.84;97433.97;4924638;29;20042;-89
2022/04/04 11:48:24;;;;;;;21.27;10.48;;;;;;;21.18;25.42;97415.75;4925778;28;20048;-88
2022/04/04 11:50:57;;;;;;;12.98;4.55;;;;;;;19.69;26.52;97405.13;4927444;29;20027;-88
2022/04/04 11:53:37;;;;;;;9.73;5.80;;;;;;;20.01;26.34;97357.41;4926715;28;20046;-90